createdAt,value
2023-04-25T00:01:45.619Z,97742.38
2023-04-25T00:06:47.553Z,97740.17
2023-04-25T00:11:49.512Z,97739.99
2023-04-25T00:16:52.799Z,97739.16
2023-04-25T00:21:55.702Z,97739.16
2023-04-25T00:26:57.523Z,97739.67
2023-04-25T00:31:59.359Z,97742.27
2023-04-25T00:37:03.077Z,97743.48
2023-04-25T00:42:05.700Z,97743.67
2023-04-25T00:47:08.404Z,97744.69
2023-04-25T00:52:11.331Z,97745.55
2023-04-25T00:57:13.114Z,97747.97
2023-04-25T01:02:14.972Z,97749.67
2023-04-25T01:07:17.321Z,97751.22
2023-04-25T01:12:19.430Z,97753.63
2023-04-25T01:17:22.210Z,97761.35
2023-04-25T01:22:24.940Z,97759.97
2023-04-25T01:27:27.615Z,97763.39
2023-04-25T01:32:30.334Z,97773.85
2023-04-25T01:37:32.118Z,97778.98
2023-04-25T01:42:35.331Z,97785.99
2023-04-25T01:47:38.913Z,97783.07
2023-04-25T01:52:40.758Z,97784.94
2023-04-25T01:57:43.725Z,97787.66
2023-04-25T02:02:46.504Z,97794.15
2023-04-25T02:08:00.029Z,97797.06
2023-04-25T02:13:03.297Z,97797.41
2023-04-25T02:18:19.589Z,97800.29
2023-04-25T02:23:21.635Z,97797.21
2023-04-25T02:28:24.863Z,97799.73
2023-04-25T02:33:26.667Z,97798.88
2023-04-25T02:38:28.452Z,97795.96
2023-04-25T02:43:32.243Z,97800.90
2023-04-25T02:48:33.981Z,97798.00
2023-04-25T02:53:35.809Z,97795.20
2023-04-25T02:58:37.785Z,97794.16
2023-04-25T03:03:39.548Z,97797.75
2023-04-25T03:08:41.534Z,97796.20
2023-04-25T03:13:43.451Z,97798.09
2023-04-25T03:18:45.806Z,97796.20
2023-04-25T03:23:47.768Z,97798.05
2023-04-25T03:28:49.997Z,97800.63
2023-04-25T03:33:52.433Z,97804.20
2023-04-25T03:38:55.495Z,97803.69
2023-04-25T03:43:58.127Z,97805.56
2023-04-25T03:49:00.438Z,97805.53
2023-04-25T03:54:10.334Z,97810.14
2023-04-25T03:59:15.096Z,97814.54
2023-04-25T04:07:12.722Z,97817.80
2023-04-25T04:12:17.362Z,97822.91
2023-04-25T04:17:19.611Z,97823.95
2023-04-25T04:22:21.591Z,97827.40
2023-04-25T04:27:24.513Z,97822.64
2023-04-25T04:32:38.839Z,97833.45
2023-04-25T04:37:41.332Z,97835.18
2023-04-25T04:42:49.140Z,97832.80
2023-04-25T04:48:01.154Z,97833.03
2023-04-25T04:53:23.725Z,97839.55
2023-04-25T04:58:25.460Z,97836.69
2023-04-25T05:03:38.162Z,97833.46
2023-04-25T05:08:51.187Z,97836.06
2023-04-25T05:14:13.382Z,97838.64
2023-04-25T05:19:20.878Z,97838.67
2023-04-25T05:24:36.278Z,97838.00
2023-04-25T05:29:43.839Z,97836.14
2023-04-25T05:35:01.969Z,97832.73
2023-04-25T05:40:10.072Z,97835.48
2023-04-25T05:45:11.803Z,97842.02
2023-04-25T05:50:32.629Z,97843.23
2023-04-25T05:55:54.303Z,97846.31
2023-04-25T06:01:03.728Z,97841.86
2023-04-25T06:06:06.178Z,97845.64
2023-04-25T06:11:08.507Z,97848.20
2023-04-25T06:16:10.847Z,97849.22
2023-04-25T06:21:12.966Z,97847.52
2023-04-25T06:26:14.681Z,97853.18
2023-04-25T06:31:17.958Z,97843.23
2023-04-25T06:36:25.894Z,97850.77
2023-04-25T06:41:29.112Z,97852.13
2023-04-25T06:46:35.198Z,97848.48
2023-04-25T06:51:37.160Z,97849.84
2023-04-25T06:56:39.046Z,97848.59
2023-04-25T07:01:44.689Z,97844.09
2023-04-25T07:06:52.110Z,97843.54
2023-04-25T07:11:57.745Z,97840.00
2023-04-25T07:16:59.589Z,97843.08
2023-04-25T07:22:02.232Z,97846.04
2023-04-25T07:27:04.847Z,97845.60
2023-04-25T07:32:26.864Z,97844.97
2023-04-25T07:37:29.748Z,97848.50
2023-04-25T07:42:57.481Z,97849.58
2023-04-25T07:48:19.589Z,97847.77
2023-04-25T07:53:22.434Z,97841.01
2023-04-25T07:58:31.122Z,97842.17
2023-04-25T08:03:35.606Z,97843.55
2023-04-25T08:08:39.413Z,97848.69
2023-04-25T08:13:41.999Z,97852.52
2023-04-25T08:18:44.781Z,97845.19
2023-04-25T08:23:47.182Z,97843.42
2023-04-25T08:28:56.978Z,97842.21
2023-04-25T08:33:58.775Z,97842.33
2023-04-25T08:39:06.580Z,97845.30
2023-04-25T08:44:12.416Z,97845.39
2023-04-25T08:49:14.676Z,97844.14
2023-04-25T08:54:30.760Z,97844.48
2023-04-25T08:59:39.395Z,97845.15
2023-04-25T09:04:44.444Z,97847.72
2023-04-25T09:09:46.374Z,97848.98
2023-04-25T09:15:12.104Z,97841.65
2023-04-25T09:20:25.979Z,97846.04
2023-04-25T09:25:28.328Z,97851.58
2023-04-25T09:30:31.901Z,97850.87
2023-04-25T09:35:43.343Z,97851.56
2023-04-25T09:40:50.757Z,97847.38
2023-04-25T09:46:00.734Z,97845.28
2023-04-25T09:51:17.093Z,97853.21
2023-04-25T09:56:21.442Z,97853.51
2023-04-25T10:01:25.305Z,97852.94
2023-04-25T10:06:35.678Z,97847.57
2023-04-25T10:11:38.925Z,97849.77
2023-04-25T10:16:42.444Z,97850.08
2023-04-25T10:22:18.375Z,97851.45
2023-04-25T10:27:20.525Z,97846.86
2023-04-25T10:32:22.365Z,97852.01
2023-04-25T10:37:25.370Z,97850.38
2023-04-25T10:42:27.418Z,97850.35
2023-04-25T10:47:45.946Z,97848.61
2023-04-25T10:52:47.784Z,97847.91
2023-04-25T10:57:51.057Z,97848.85
2023-04-25T11:02:54.883Z,97845.11
2023-04-25T11:08:07.952Z,97843.38
2023-04-25T11:13:10.396Z,97842.98
2023-04-25T11:18:17.441Z,97846.16
2023-04-25T11:23:19.451Z,97845.61
2023-04-25T11:28:25.571Z,97853.02
2023-04-25T11:33:29.325Z,97853.61
2023-04-25T11:38:31.224Z,97853.39
2023-04-25T11:43:33.317Z,97855.96
2023-04-25T11:48:43.386Z,97858.08
2023-04-25T11:53:48.240Z,97858.89
2023-04-25T11:59:03.999Z,97857.16
2023-04-25T12:04:14.787Z,97856.77
2023-04-25T12:09:37.016Z,97854.67
2023-04-25T12:14:38.690Z,97850.08
2023-04-25T12:19:41.809Z,97848.52
2023-04-25T12:24:46.185Z,97842.06
2023-04-25T12:29:53.369Z,97844.16
2023-04-25T12:34:55.577Z,97847.11
2023-04-25T12:39:57.330Z,97844.06
2023-04-25T12:44:58.992Z,97844.14
2023-04-25T12:50:01.119Z,97841.98
2023-04-25T12:55:02.952Z,97836.08
2023-04-25T13:00:07.263Z,97825.63
2023-04-25T13:05:12.238Z,97825.45
2023-04-25T13:10:14.394Z,97825.92
2023-04-25T13:15:16.786Z,97818.31
2023-04-25T13:20:20.060Z,97814.14
2023-04-25T13:25:22.862Z,97814.98
2023-04-25T13:30:24.692Z,97812.89
2023-04-25T13:35:26.887Z,97815.45
2023-04-25T13:40:29.015Z,97813.98
2023-04-25T13:45:33.299Z,97814.59
2023-04-25T13:50:36.699Z,97808.94
2023-04-25T13:55:38.480Z,97805.77
2023-04-25T14:00:41.569Z,97806.41
2023-04-25T14:05:43.255Z,97809.27
2023-04-25T14:10:44.950Z,97815.82
2023-04-25T14:15:46.803Z,97815.97
2023-04-25T14:20:49.105Z,97818.81
2023-04-25T14:25:51.036Z,97816.55
2023-04-25T14:30:52.796Z,97822.95
2023-04-25T14:35:54.784Z,97822.38
2023-04-25T14:40:56.472Z,97815.76
2023-04-25T14:45:58.625Z,97811.17
2023-04-25T14:51:01.737Z,97817.11
2023-04-25T14:56:04.032Z,97825.72
2023-04-25T15:01:05.882Z,97829.86
2023-04-25T15:06:07.949Z,97820.63
2023-04-25T15:11:15.921Z,97816.35
2023-04-25T15:16:17.694Z,97818.66
2023-04-25T15:21:19.606Z,97815.14
2023-04-25T15:26:21.271Z,97822.90
2023-04-25T15:31:23.300Z,97826.45
2023-04-25T15:36:25.230Z,97834.41
2023-04-25T15:41:26.991Z,97840.50
2023-04-25T15:46:31.363Z,97841.97
2023-04-25T15:51:34.058Z,97842.98
2023-04-25T15:56:35.978Z,97841.37
2023-04-25T16:01:38.110Z,97842.58
2023-04-25T16:06:40.152Z,97842.02
2023-04-25T16:11:42.151Z,97848.93
2023-04-25T16:16:44.955Z,97849.44
2023-04-25T16:21:47.333Z,97849.23
2023-04-25T16:26:49.044Z,97855.27
2023-04-25T16:31:50.749Z,97857.41
2023-04-25T16:36:54.429Z,97861.27
2023-04-25T16:41:57.428Z,97860.98
2023-04-25T16:46:59.263Z,97855.36
2023-04-25T16:52:01.226Z,97858.64
2023-04-25T16:57:04.595Z,97862.49
2023-04-25T17:02:12.367Z,97874.91
2023-04-25T17:07:14.364Z,97884.21
2023-04-25T17:12:16.837Z,97891.80
2023-04-25T17:17:18.954Z,97895.58
2023-04-25T17:22:21.760Z,97898.63
2023-04-25T17:27:23.589Z,97903.63
2023-04-25T17:32:25.687Z,97909.30
2023-04-25T17:37:28.881Z,97910.11
2023-04-25T17:42:30.899Z,97917.59
2023-04-25T17:47:32.954Z,97931.52
2023-04-25T17:52:35.636Z,97942.50
2023-04-25T17:57:37.572Z,97947.27
2023-04-25T18:02:40.374Z,97957.33
2023-04-25T18:07:42.423Z,97963.77
2023-04-25T18:12:44.233Z,97972.23
2023-04-25T18:17:46.209Z,97982.18
2023-04-25T18:22:48.118Z,97990.76
2023-04-25T18:27:51.228Z,98000.68
2023-04-25T18:32:53.115Z,98009.30
2023-04-25T18:37:54.980Z,98019.97
2023-04-25T18:42:57.082Z,98028.59
2023-04-25T18:48:00.524Z,98035.02
2023-04-25T18:53:04.066Z,98043.56
2023-04-25T18:58:07.699Z,98051.22
2023-04-25T19:03:10.213Z,98060.55
2023-04-25T19:08:12.016Z,98064.26
2023-04-25T19:13:14.376Z,98069.06
2023-04-25T19:18:16.321Z,98068.08
2023-04-25T19:23:18.646Z,98071.36
2023-04-25T19:28:20.613Z,98079.45
2023-04-25T19:33:22.455Z,98086.96
2023-04-25T19:38:24.563Z,98089.58
2023-04-25T19:43:26.252Z,98095.23
2023-04-25T19:48:28.015Z,98096.66
2023-04-25T19:53:29.789Z,98104.55
2023-04-25T19:58:32.389Z,98109.53
2023-04-25T20:03:34.301Z,98113.86
2023-04-25T20:08:36.854Z,98118.52
2023-04-25T20:13:38.752Z,98122.89
2023-04-25T20:18:41.576Z,98124.79
2023-04-25T20:23:44.103Z,98126.38
2023-04-25T20:28:46.341Z,98127.95
2023-04-25T20:33:48.286Z,98134.00
2023-04-25T20:38:50.260Z,98139.33
2023-04-25T20:43:54.216Z,98147.38
2023-04-25T20:48:56.708Z,98153.74
2023-04-25T20:54:00.194Z,98162.53
2023-04-25T20:59:01.879Z,98165.10
2023-04-25T21:04:03.825Z,98168.73
2023-04-25T21:09:07.664Z,98169.29
2023-04-25T21:14:16.899Z,98175.50
2023-04-25T21:19:18.788Z,98177.09
2023-04-25T21:24:21.954Z,98182.82
2023-04-25T21:29:23.813Z,98187.81
2023-04-25T21:34:26.675Z,98192.40
2023-04-25T21:39:30.885Z,98197.83
2023-04-25T21:44:33.502Z,98199.36
2023-04-25T21:50:00.594Z,98205.05
2023-04-25T21:55:02.308Z,98209.34
2023-04-25T22:00:20.153Z,98214.95
2023-04-25T22:05:24.077Z,98204.35
2023-04-25T22:10:25.989Z,98205.77
2023-04-25T22:15:29.501Z,98221.73
2023-04-25T22:20:32.001Z,98230.05
2023-04-25T22:25:33.771Z,98227.79
2023-04-25T22:30:37.222Z,98226.42
2023-04-25T22:35:39.274Z,98233.66
2023-04-25T22:40:41.083Z,98239.08
2023-04-25T22:45:42.913Z,98245.57
2023-04-25T22:50:45.486Z,98249.13
2023-04-25T22:55:55.980Z,98252.36
2023-04-25T23:00:57.709Z,98257.05
2023-04-25T23:05:59.883Z,98258.48
2023-04-25T23:11:07.871Z,98258.11
2023-04-25T23:16:11.060Z,98264.22
2023-04-25T23:21:13.470Z,98267.27
2023-04-25T23:26:15.593Z,98272.83
2023-04-25T23:31:17.748Z,98274.21
2023-04-25T23:36:21.335Z,98275.88
2023-04-25T23:41:25.522Z,98278.19
2023-04-25T23:46:31.311Z,98283.39
2023-04-25T23:51:36.450Z,98284.66
2023-04-25T23:56:38.090Z,98289.55
